Terminal Aerodrome Forecast
Issued by NWS

Home | Current Version | Previous Version | Graphics & Text | Print | Product List | Glossary On
Versions: 1 2 3 4 5 6 7 8 9 10 11 12 13 14 15 16 17 18 19 20 21 22 23 24 25 26 27 28 29 30 31
760
FTUS43 KBIS 131633 AAC
TAFJMS
TAF AMD
KJMS 131633Z 1317/1412 35016G22KT P6SM OVC015
      TEMPO 1317/1320 OVC025
     FM132000 33015G21KT P6SM OVC025
     FM140000 33011KT P6SM BKN025
     FM140500 30006KT P6SM OVC015
     FM141000 30004KT 3SM -SN BR OVC012=

USA.gov is the U.S. government's official web portal to all federal, state and local government web resources and services.